sensor_id;sensor_type;location;lat;lon;timestamp;pressure;altitude;pressure_sealevel;temperature;humidity
39443;BME280;25147;52.142;9.960;2023-09-19T00:02:03;99680.81;;;15.74;100.00
39443;BME280;25147;52.142;9.960;2023-09-19T00:04:32;99404.88;;;14.10;100.00
39443;BME280;25147;52.142;9.960;2023-09-19T00:07:03;99420.03;;;14.23;100.00
39443;BME280;25147;52.142;9.960;2023-09-19T00:09:36;99600.22;;;15.13;100.00
39443;BME280;25147;52.142;9.960;2023-09-19T00:12:13;99686.03;;;15.75;100.00
39443;BME280;25147;52.142;9.960;2023-09-19T00:14:44;99566.16;;;15.08;100.00
39443;BME280;25147;52.142;9.960;2023-09-19T00:17:11;99562.66;;;15.08;100.00
39443;BME280;25147;52.142;9.960;2023-09-19T00:19:38;99457.88;;;14.21;100.00
39443;BME280;25147;52.142;9.960;2023-09-19T00:22:08;99396.72;;;13.97;100.00
39443;BME280;25147;52.142;9.960;2023-09-19T00:24:41;99582.50;;;15.16;100.00
39443;BME280;25147;52.142;9.960;2023-09-19T00:27:09;99551.09;;;14.93;100.00
39443;BME280;25147;52.142;9.960;2023-09-19T00:29:38;99542.78;;;14.83;100.00
39443;BME280;25147;52.142;9.960;2023-09-19T00:32:07;99717.88;;;15.90;100.00
39443;BME280;25147;52.142;9.960;2023-09-19T00:34:34;99701.88;;;15.93;100.00
39443;BME280;25147;52.142;9.960;2023-09-19T00:37:01;99703.28;;;16.00;100.00
39443;BME280;25147;52.142;9.960;2023-09-19T00:39:31;99435.81;;;14.23;100.00
39443;BME280;25147;52.142;9.960;2023-09-19T00:42:17;99424.06;;;14.12;100.00
39443;BME280;25147;52.142;9.960;2023-09-19T00:45:18;99610.66;;;15.33;100.00
39443;BME280;25147;52.142;9.960;2023-09-19T00:47:54;99413.19;;;14.19;100.00
39443;BME280;25147;52.142;9.960;2023-09-19T00:50:40;99465.41;;;14.29;100.00
39443;BME280;25147;52.142;9.960;2023-09-19T00:53:09;99689.00;;;15.68;100.00
39443;BME280;25147;52.142;9.960;2023-09-19T00:55:40;99621.09;;;15.17;100.00
39443;BME280;25147;52.142;9.960;2023-09-19T00:58:08;99593.09;;;15.15;100.00
39443;BME280;25147;52.142;9.960;2023-09-19T01:00:44;99497.47;;;14.57;100.00
39443;BME280;25147;52.142;9.960;2023-09-19T01:03:11;99673.84;;;15.54;100.00
39443;BME280;25147;52.142;9.960;2023-09-19T01:05:41;99472.59;;;14.44;100.00
39443;BME280;25147;52.142;9.960;2023-09-19T01:08:11;99729.41;;;15.87;100.00
39443;BME280;25147;52.142;9.960;2023-09-19T01:10:43;99442.22;;;14.18;100.00
39443;BME280;25147;52.142;9.960;2023-09-19T01:13:26;99714.47;;;15.88;100.00
39443;BME280;25147;52.142;9.960;2023-09-19T01:16:10;99571.44;;;15.08;100.00
39443;BME280;25147;52.142;9.960;2023-09-19T01:18:45;99714.75;;;15.62;100.00
39443;BME280;25147;52.142;9.960;2023-09-19T01:21:19;99617.16;;;15.26;100.00
39443;BME280;25147;52.142;9.960;2023-09-19T01:24:22;99734.69;;;15.87;100.00
39443;BME280;25147;52.142;9.960;2023-09-19T01:27:21;99588.41;;;15.02;100.00
39443;BME280;25147;52.142;9.960;2023-09-19T01:29:52;99545.16;;;14.70;100.00
39443;BME280;25147;52.142;9.960;2023-09-19T01:32:25;99720.03;;;15.81;100.00
39443;BME280;25147;52.142;9.960;2023-09-19T01:34:57;99658.06;;;15.35;100.00
39443;BME280;25147;52.142;9.960;2023-09-19T01:37:32;99444.34;;;14.10;100.00
39443;BME280;25147;52.142;9.960;2023-09-19T01:40:06;99554.97;;;14.67;100.00
39443;BME280;25147;52.142;9.960;2023-09-19T01:42:44;99610.78;;;15.13;100.00
39443;BME280;25147;52.142;9.960;2023-09-19T01:48:35;99619.59;;;15.12;100.00
39443;BME280;25147;52.142;9.960;2023-09-19T01:51:10;99736.00;;;15.78;100.00
39443;BME280;25147;52.142;9.960;2023-09-19T01:53:44;99443.78;;;14.03;100.00
39443;BME280;25147;52.142;9.960;2023-09-19T01:57:14;99487.97;;;14.15;100.00
39443;BME280;25147;52.142;9.960;2023-09-19T01:59:59;99656.28;;;15.35;100.00
39443;BME280;25147;52.142;9.960;2023-09-19T02:02:33;99668.69;;;15.33;100.00
39443;BME280;25147;52.142;9.960;2023-09-19T02:05:22;99436.03;;;13.81;100.00
39443;BME280;25147;52.142;9.960;2023-09-19T02:08:08;99456.66;;;14.09;100.00
39443;BME280;25147;52.142;9.960;2023-09-19T02:11:05;99757.78;;;15.83;100.00
39443;BME280;25147;52.142;9.960;2023-09-19T02:13:36;99763.91;;;15.84;100.00
39443;BME280;25147;52.142;9.960;2023-09-19T02:16:19;99435.16;;;13.80;100.00
39443;BME280;25147;52.142;9.960;2023-09-19T02:18:51;99711.00;;;15.49;100.00
39443;BME280;25147;52.142;9.960;2023-09-19T02:21:32;99772.13;;;15.78;100.00
39443;BME280;25147;52.142;9.960;2023-09-19T02:24:02;99474.22;;;13.90;100.00
39443;BME280;25147;52.142;9.960;2023-09-19T02:26:30;99776.44;;;15.79;100.00
39443;BME280;25147;52.142;9.960;2023-09-19T02:29:26;99667.16;;;15.10;100.00
39443;BME280;25147;52.142;9.960;2023-09-19T02:32:28;99488.31;;;13.89;100.00
39443;BME280;25147;52.142;9.960;2023-09-19T02:35:34;99495.38;;;14.07;100.00
39443;BME280;25147;52.142;9.960;2023-09-19T02:38:37;99461.41;;;13.82;100.00
39443;BME280;25147;52.142;9.960;2023-09-19T02:41:11;99686.50;;;15.09;100.00
39443;BME280;25147;52.142;9.960;2023-09-19T02:46:53;99505.94;;;14.05;100.00
39443;BME280;25147;52.142;9.960;2023-09-19T02:49:25;99478.34;;;13.95;100.00
39443;BME280;25147;52.142;9.960;2023-09-19T02:51:55;99494.13;;;13.95;100.00
39443;BME280;25147;52.142;9.960;2023-09-19T02:54:35;99456.84;;;13.85;100.00
39443;BME280;25147;52.142;9.960;2023-09-19T02:57:20;99496.78;;;14.14;100.00
39443;BME280;25147;52.142;9.960;2023-09-19T02:59:55;99548.59;;;14.33;100.00
39443;BME280;25147;52.142;9.960;2023-09-19T03:02:36;99641.22;;;14.82;100.00
39443;BME280;25147;52.142;9.960;2023-09-19T03:05:07;99796.19;;;15.89;100.00
39443;BME280;25147;52.142;9.960;2023-09-19T03:07:38;99506.13;;;14.21;100.00
39443;BME280;25147;52.142;9.960;2023-09-19T03:10:10;99487.19;;;14.13;100.00
39443;BME280;25147;52.142;9.960;2023-09-19T03:12:42;99664.91;;;15.20;100.00
39443;BME280;25147;52.142;9.960;2023-09-19T03:15:24;99797.13;;;15.88;100.00
39443;BME280;25147;52.142;9.960;2023-09-19T03:17:59;99705.19;;;15.23;100.00
39443;BME280;25147;52.142;9.960;2023-09-19T03:20:29;99517.16;;;14.11;100.00
39443;BME280;25147;52.142;9.960;2023-09-19T03:23:20;99782.75;;;15.76;100.00
39443;BME280;25147;52.142;9.960;2023-09-19T03:26:07;99798.69;;;15.73;100.00
39443;BME280;25147;52.142;9.960;2023-09-19T03:31:55;99802.47;;;15.68;100.00
39443;BME280;25147;52.142;9.960;2023-09-19T03:38:29;99785.06;;;15.44;100.00
39443;BME280;25147;52.142;9.960;2023-09-19T03:41:19;99627.66;;;14.31;100.00
39443;BME280;25147;52.142;9.960;2023-09-19T03:44:03;99488.63;;;13.41;100.00
39443;BME280;25147;52.142;9.960;2023-09-19T03:46:30;99745.78;;;15.00;100.00
39443;BME280;25147;52.142;9.960;2023-09-19T03:48:58;99787.59;;;15.29;100.00
39443;BME280;25147;52.142;9.960;2023-09-19T03:51:27;99846.75;;;15.42;100.00
39443;BME280;25147;52.142;9.960;2023-09-19T03:55:01;99817.09;;;15.37;100.00
39443;BME280;25147;52.142;9.960;2023-09-19T03:57:31;99703.56;;;14.62;100.00
39443;BME280;25147;52.142;9.960;2023-09-19T04:00:01;99650.13;;;14.19;100.00
39443;BME280;25147;52.142;9.960;2023-09-19T04:02:57;99669.88;;;14.09;100.00
39443;BME280;25147;52.142;9.960;2023-09-19T04:05:51;99684.66;;;14.12;100.00
39443;BME280;25147;52.142;9.960;2023-09-19T04:08:18;99692.63;;;14.10;100.00
39443;BME280;25147;52.142;9.960;2023-09-19T04:10:49;99569.78;;;13.49;100.00
39443;BME280;25147;52.142;9.960;2023-09-19T04:17:24;99741.75;;;14.52;100.00
39443;BME280;25147;52.142;9.960;2023-09-19T04:20:05;99856.53;;;15.19;100.00
39443;BME280;25147;52.142;9.960;2023-09-19T04:23:02;99860.03;;;15.20;100.00
39443;BME280;25147;52.142;9.960;2023-09-19T04:25:36;99856.25;;;15.07;100.00
39443;BME280;25147;52.142;9.960;2023-09-19T04:28:06;99882.19;;;15.16;100.00
39443;BME280;25147;52.142;9.960;2023-09-19T04:31:00;99862.09;;;15.13;100.00
39443;BME280;25147;52.142;9.960;2023-09-19T04:37:08;99681.81;;;13.96;100.00
39443;BME280;25147;52.142;9.960;2023-09-19T04:40:33;99857.22;;;15.04;100.00
39443;BME280;25147;52.142;9.960;2023-09-19T04:43:01;99558.84;;;13.16;100.00
39443;BME280;25147;52.142;9.960;2023-09-19T04:49:17;99579.53;;;13.25;100.00
39443;BME280;25147;52.142;9.960;2023-09-19T04:52:07;99879.25;;;15.03;100.00
39443;BME280;25147;52.142;9.960;2023-09-19T04:54:34;99880.16;;;15.02;100.00
39443;BME280;25147;52.142;9.960;2023-09-19T04:57:06;99569.69;;;13.08;100.00
39443;BME280;25147;52.142;9.960;2023-09-19T04:59:39;99894.47;;;14.96;100.00
39443;BME280;25147;52.142;9.960;2023-09-19T05:02:26;99889.00;;;15.01;100.00
39443;BME280;25147;52.142;9.960;2023-09-19T05:05:09;99893.31;;;15.02;100.00
39443;BME280;25147;52.142;9.960;2023-09-19T05:07:50;99645.13;;;13.50;100.00
39443;BME280;25147;52.142;9.960;2023-09-19T05:10:34;99849.56;;;14.57;100.00
39443;BME280;25147;52.142;9.960;2023-09-19T05:13:03;99897.00;;;14.98;100.00
39443;BME280;25147;52.142;9.960;2023-09-19T05:15:38;99611.78;;;13.29;100.00
39443;BME280;25147;52.142;9.960;2023-09-19T05:18:30;99912.50;;;15.05;100.00
39443;BME280;25147;52.142;9.960;2023-09-19T05:21:01;99921.28;;;15.06;100.00
39443;BME280;25147;52.142;9.960;2023-09-19T05:24:03;99637.19;;;13.30;100.00
39443;BME280;25147;52.142;9.960;2023-09-19T05:26:34;99904.53;;;15.07;100.00
39443;BME280;25147;52.142;9.960;2023-09-19T05:29:04;99778.06;;;14.23;100.00
39443;BME280;25147;52.142;9.960;2023-09-19T05:31:33;99588.00;;;13.10;100.00
39443;BME280;25147;52.142;9.960;2023-09-19T05:34:09;99860.31;;;14.51;100.00
39443;BME280;25147;52.142;9.960;2023-09-19T05:37:21;99608.84;;;13.14;100.00
39443;BME280;25147;52.142;9.960;2023-09-19T05:40:33;99877.91;;;14.72;100.00
39443;BME280;25147;52.142;9.960;2023-09-19T05:43:19;99848.09;;;14.50;99.60
39443;BME280;25147;52.142;9.960;2023-09-19T05:46:32;99695.84;;;13.54;99.85
39443;BME280;25147;52.142;9.960;2023-09-19T05:49:43;99848.88;;;14.52;98.07
39443;BME280;25147;52.142;9.960;2023-09-19T05:52:11;99837.06;;;14.40;97.57
39443;BME280;25147;52.142;9.960;2023-09-19T05:59:03;99963.22;;;15.12;97.49
39443;BME280;25147;52.142;9.960;2023-09-19T06:01:32;99675.84;;;13.26;97.14
39443;BME280;25147;52.142;9.960;2023-09-19T06:04:09;99785.38;;;13.95;95.97
39443;BME280;25147;52.142;9.960;2023-09-19T06:07:01;99976.47;;;15.11;97.28
39443;BME280;25147;52.142;9.960;2023-09-19T06:10:15;99981.59;;;15.14;95.84
39443;BME280;25147;52.142;9.960;2023-09-19T06:12:47;99798.03;;;14.07;95.90
39443;BME280;25147;52.142;9.960;2023-09-19T06:15:20;100014.91;;;15.16;95.58
39443;BME280;25147;52.142;9.960;2023-09-19T06:18:13;99712.47;;;13.54;94.37
39443;BME280;25147;52.142;9.960;2023-09-19T06:21:24;99996.63;;;15.32;96.19
39443;BME280;25147;52.142;9.960;2023-09-19T06:23:52;99712.41;;;13.56;94.21
39443;BME280;25147;52.142;9.960;2023-09-19T06:26:22;100008.59;;;15.41;93.83
39443;BME280;25147;52.142;9.960;2023-09-19T06:28:53;100034.25;;;15.37;94.09
39443;BME280;25147;52.142;9.960;2023-09-19T06:38:05;99830.81;;;14.42;93.79
39443;BME280;25147;52.142;9.960;2023-09-19T06:40:34;100041.44;;;15.54;92.59
39443;BME280;25147;52.142;9.960;2023-09-19T06:43:04;99902.91;;;14.84;93.39
39443;BME280;25147;52.142;9.960;2023-09-19T06:45:32;99894.19;;;14.82;92.79
39443;BME280;25147;52.142;9.960;2023-09-19T06:47:59;99840.19;;;14.50;93.28
39443;BME280;25147;52.142;9.960;2023-09-19T06:50:35;99829.38;;;14.35;93.32
39443;BME280;25147;52.142;9.960;2023-09-19T06:53:08;99842.69;;;14.31;92.92
39443;BME280;25147;52.142;9.960;2023-09-19T06:55:38;99886.94;;;14.67;93.63
39443;BME280;25147;52.142;9.960;2023-09-19T06:58:12;99762.84;;;13.88;93.50
39443;BME280;25147;52.142;9.960;2023-09-19T07:00:45;99750.13;;;13.77;93.61
39443;BME280;25147;52.142;9.960;2023-09-19T07:03:13;99998.56;;;15.29;94.94
39443;BME280;25147;52.142;9.960;2023-09-19T07:05:41;99931.69;;;14.89;95.15
39443;BME280;25147;52.142;9.960;2023-09-19T07:11:36;99997.31;;;15.17;94.74
39443;BME280;25147;52.142;9.960;2023-09-19T07:14:10;100008.44;;;15.23;95.37
39443;BME280;25147;52.142;9.960;2023-09-19T07:16:43;100019.84;;;15.24;96.03
39443;BME280;25147;52.142;9.960;2023-09-19T07:19:19;99924.22;;;14.57;94.59
39443;BME280;25147;52.142;9.960;2023-09-19T07:25:26;99851.59;;;14.28;93.89
39443;BME280;25147;52.142;9.960;2023-09-19T07:28:07;99826.31;;;14.02;93.92
39443;BME280;25147;52.142;9.960;2023-09-19T07:30:38;99984.97;;;15.17;93.80
39443;BME280;25147;52.142;9.960;2023-09-19T07:33:26;99768.66;;;13.74;93.18
39443;BME280;25147;52.142;9.960;2023-09-19T07:36:00;99857.88;;;14.46;92.13
39443;BME280;25147;52.142;9.960;2023-09-19T07:38:46;99935.19;;;14.89;90.91
39443;BME280;25147;52.142;9.960;2023-09-19T07:44:54;99767.63;;;14.00;90.35
39443;BME280;25147;52.142;9.960;2023-09-19T07:47:28;99746.03;;;13.92;90.44
39443;BME280;25147;52.142;9.960;2023-09-19T07:58:01;100058.94;;;15.98;88.11
39443;BME280;25147;52.142;9.960;2023-09-19T08:00:41;100066.66;;;16.02;87.28
39443;BME280;25147;52.142;9.960;2023-09-19T08:03:10;99947.25;;;15.36;87.79
39443;BME280;25147;52.142;9.960;2023-09-19T08:05:43;99879.56;;;14.95;87.55
39443;BME280;25147;52.142;9.960;2023-09-19T08:08:25;99970.34;;;15.51;87.03
39443;BME280;25147;52.142;9.960;2023-09-19T08:10:54;100063.78;;;16.07;85.59
39443;BME280;25147;52.142;9.960;2023-09-19T08:16:30;99891.63;;;15.01;85.25
39443;BME280;25147;52.142;9.960;2023-09-19T08:19:01;99836.72;;;14.49;84.21
39443;BME280;25147;52.142;9.960;2023-09-19T08:21:35;100099.34;;;16.00;85.81
39443;BME280;25147;52.142;9.960;2023-09-19T08:24:17;99822.19;;;14.39;85.14
39443;BME280;25147;52.142;9.960;2023-09-19T08:26:50;99816.69;;;14.45;85.47
39443;BME280;25147;52.142;9.960;2023-09-19T08:29:23;99899.75;;;14.96;84.29
39443;BME280;25147;52.142;9.960;2023-09-19T08:31:58;99905.88;;;14.97;84.38
39443;BME280;25147;52.142;9.960;2023-09-19T08:37:36;99978.44;;;15.47;85.01
39443;BME280;25147;52.142;9.960;2023-09-19T08:40:04;100078.63;;;16.10;84.70
39443;BME280;25147;52.142;9.960;2023-09-19T08:42:48;100065.59;;;16.07;84.28
39443;BME280;25147;52.142;9.960;2023-09-19T08:45:20;99810.72;;;14.62;83.23
39443;BME280;25147;52.142;9.960;2023-09-19T08:48:27;99805.66;;;14.57;83.50
39443;BME280;25147;52.142;9.960;2023-09-19T08:51:03;99794.13;;;14.60;82.75
39443;BME280;25147;52.142;9.960;2023-09-19T08:53:40;99812.03;;;14.93;83.19
39443;BME280;25147;52.142;9.960;2023-09-19T08:56:33;100060.84;;;16.53;81.22
39443;BME280;25147;52.142;9.960;2023-09-19T08:59:07;100060.69;;;16.56;81.50
39443;BME280;25147;52.142;9.960;2023-09-19T09:01:38;99906.19;;;15.70;81.22
39443;BME280;25147;52.142;9.960;2023-09-19T09:04:18;100008.44;;;16.43;81.23
39443;BME280;25147;52.142;9.960;2023-09-19T09:06:49;100065.56;;;16.84;79.16
39443;BME280;25147;52.142;9.960;2023-09-19T09:09:21;99869.53;;;15.63;79.57
39443;BME280;25147;52.142;9.960;2023-09-19T09:11:49;99975.16;;;16.39;78.30
39443;BME280;25147;52.142;9.960;2023-09-19T09:14:49;99814.59;;;15.34;77.72
39443;BME280;25147;52.142;9.960;2023-09-19T09:17:16;99928.03;;;16.11;77.50
39443;BME280;25147;52.142;9.960;2023-09-19T09:19:49;100074.81;;;17.12;77.77
39443;BME280;25147;52.142;9.960;2023-09-19T09:22:21;100054.53;;;16.93;78.22
39443;BME280;25147;52.142;9.960;2023-09-19T09:24:52;99937.31;;;16.20;77.72
39443;BME280;25147;52.142;9.960;2023-09-19T09:27:26;99932.91;;;16.20;77.93
39443;BME280;25147;52.142;9.960;2023-09-19T09:29:53;100060.97;;;17.07;78.17
39443;BME280;25147;52.142;9.960;2023-09-19T09:32:23;99928.25;;;16.25;77.95
39443;BME280;25147;52.142;9.960;2023-09-19T09:35:11;99789.00;;;15.55;76.41
39443;BME280;25147;52.142;9.960;2023-09-19T09:37:43;100094.44;;;17.25;77.69
39443;BME280;25147;52.142;9.960;2023-09-19T09:40:16;100071.88;;;17.35;77.12
39443;BME280;25147;52.142;9.960;2023-09-19T09:43:01;99883.81;;;16.16;77.29
39443;BME280;25147;52.142;9.960;2023-09-19T09:45:36;99832.88;;;15.76;76.68
39443;BME280;25147;52.142;9.960;2023-09-19T09:48:05;99828.75;;;15.90;77.49
39443;BME280;25147;52.142;9.960;2023-09-19T09:50:47;99905.69;;;16.37;77.75
39443;BME280;25147;52.142;9.960;2023-09-19T09:53:22;100082.53;;;17.34;77.63
39443;BME280;25147;52.142;9.960;2023-09-19T09:55:58;99860.34;;;15.91;77.40
39443;BME280;25147;52.142;9.960;2023-09-19T09:58:35;99987.44;;;16.77;77.51
39443;BME280;25147;52.142;9.960;2023-09-19T10:03:59;100102.00;;;17.33;77.49
39443;BME280;25147;52.142;9.960;2023-09-19T10:06:57;100003.91;;;16.83;77.71
39443;BME280;25147;52.142;9.960;2023-09-19T10:09:45;99834.38;;;15.82;78.07
39443;BME280;25147;52.142;9.960;2023-09-19T10:16:33;100087.16;;;17.48;77.27
39443;BME280;25147;52.142;9.960;2023-09-19T10:19:01;100073.44;;;17.39;77.34
39443;BME280;25147;52.142;9.960;2023-09-19T10:21:32;100034.50;;;17.07;76.87
39443;BME280;25147;52.142;9.960;2023-09-19T10:24:12;99856.25;;;16.03;76.57
39443;BME280;25147;52.142;9.960;2023-09-19T10:27:05;99835.00;;;16.06;77.03
39443;BME280;25147;52.142;9.960;2023-09-19T10:29:36;100113.94;;;17.59;77.55
39443;BME280;25147;52.142;9.960;2023-09-19T10:32:22;99834.13;;;16.05;77.60
39443;BME280;25147;52.142;9.960;2023-09-19T10:38:24;100001.28;;;17.01;78.12
39443;BME280;25147;52.142;9.960;2023-09-19T10:41:03;100082.47;;;17.70;78.19
39443;BME280;25147;52.142;9.960;2023-09-19T10:43:35;100110.09;;;17.83;77.63
39443;BME280;25147;52.142;9.960;2023-09-19T10:46:07;100070.38;;;17.83;76.33
39443;BME280;25147;52.142;9.960;2023-09-19T10:48:39;100101.50;;;17.96;75.50
39443;BME280;25147;52.142;9.960;2023-09-19T10:51:36;100102.44;;;17.95;74.02
39443;BME280;25147;52.142;9.960;2023-09-19T10:54:11;99928.56;;;16.92;73.96
39443;BME280;25147;52.142;9.960;2023-09-19T10:56:48;99978.88;;;17.25;73.04
39443;BME280;25147;52.142;9.960;2023-09-19T10:59:19;99919.47;;;16.79;72.28
39443;BME280;25147;52.142;9.960;2023-09-19T11:01:52;100073.22;;;17.61;72.12
39443;BME280;25147;52.142;9.960;2023-09-19T11:04:24;99923.94;;;16.78;73.03
39443;BME280;25147;52.142;9.960;2023-09-19T11:07:06;99913.16;;;16.83;72.67
39443;BME280;25147;52.142;9.960;2023-09-19T11:09:46;99831.00;;;16.34;73.31
39443;BME280;25147;52.142;9.960;2023-09-19T11:12:53;99824.16;;;16.30;73.71
39443;BME280;25147;52.142;9.960;2023-09-19T11:18:57;99830.38;;;16.46;72.65
39443;BME280;25147;52.142;9.960;2023-09-19T11:21:52;100098.22;;;18.08;72.40
39443;BME280;25147;52.142;9.960;2023-09-19T11:24:49;99833.03;;;16.63;72.61
39443;BME280;25147;52.142;9.960;2023-09-19T11:27:19;100086.44;;;18.14;70.66
39443;BME280;25147;52.142;9.960;2023-09-19T11:29:46;99901.88;;;17.14;69.62
39443;BME280;25147;52.142;9.960;2023-09-19T11:32:15;99867.34;;;16.82;69.58
39443;BME280;25147;52.142;9.960;2023-09-19T11:34:51;100081.03;;;18.15;69.66
39443;BME280;25147;52.142;9.960;2023-09-19T11:40:45;100022.03;;;17.96;69.33
39443;BME280;25147;52.142;9.960;2023-09-19T11:43:31;100058.41;;;18.25;69.28
39443;BME280;25147;52.142;9.960;2023-09-19T11:46:04;100038.13;;;18.09;69.01
39443;BME280;25147;52.142;9.960;2023-09-19T11:48:31;100064.34;;;18.31;68.84
39443;BME280;25147;52.142;9.960;2023-09-19T11:50:59;99969.72;;;17.66;68.99
39443;BME280;25147;52.142;9.960;2023-09-19T11:53:33;99958.88;;;17.71;68.38
39443;BME280;25147;52.142;9.960;2023-09-19T11:56:05;99989.50;;;17.76;67.96
39443;BME280;25147;52.142;9.960;2023-09-19T11:58:44;99799.75;;;16.77;68.13
39443;BME280;25147;52.142;9.960;2023-09-19T12:01:21;99921.03;;;17.53;68.56
39443;BME280;25147;52.142;9.960;2023-09-19T12:03:57;99764.13;;;16.51;66.63
39443;BME280;25147;52.142;9.960;2023-09-19T12:06:28;99929.31;;;17.62;66.07
39443;BME280;25147;52.142;9.960;2023-09-19T12:08:58;100068.72;;;18.48;66.68
39443;BME280;25147;52.142;9.960;2023-09-19T12:11:29;100070.38;;;18.50;65.80
39443;BME280;25147;52.142;9.960;2023-09-19T12:14:08;100064.28;;;18.48;66.62
39443;BME280;25147;52.142;9.960;2023-09-19T12:16:36;99995.75;;;18.09;66.91
39443;BME280;25147;52.142;9.960;2023-09-19T12:19:20;100056.66;;;18.58;66.01
39443;BME280;25147;52.142;9.960;2023-09-19T12:21:54;100017.06;;;18.39;64.75
39443;BME280;25147;52.142;9.960;2023-09-19T12:24:24;100064.81;;;18.71;65.03
39443;BME280;25147;52.142;9.960;2023-09-19T12:26:52;100061.81;;;18.77;65.27
39443;BME280;25147;52.142;9.960;2023-09-19T12:29:21;100089.13;;;18.79;64.52
39443;BME280;25147;52.142;9.960;2023-09-19T12:31:53;100089.66;;;18.86;64.03
39443;BME280;25147;52.142;9.960;2023-09-19T12:34:24;100015.88;;;18.60;63.42
39443;BME280;25147;52.142;9.960;2023-09-19T12:37:06;100063.63;;;18.92;64.25
39443;BME280;25147;52.142;9.960;2023-09-19T12:39:40;100051.56;;;18.87;63.82
39443;BME280;25147;52.142;9.960;2023-09-19T12:42:12;99808.47;;;17.30;63.70
39443;BME280;25147;52.142;9.960;2023-09-19T12:44:44;100061.03;;;18.91;64.48
39443;BME280;25147;52.142;9.960;2023-09-19T12:47:13;100033.56;;;18.76;62.83
39443;BME280;25147;52.142;9.960;2023-09-19T12:50:14;100066.28;;;18.92;63.60
39443;BME280;25147;52.142;9.960;2023-09-19T12:52:49;100055.59;;;18.94;63.74
39443;BME280;25147;52.142;9.960;2023-09-19T12:55:20;100100.75;;;18.92;63.88
39443;BME280;25147;52.142;9.960;2023-09-19T12:58:08;100060.97;;;18.92;64.17
39443;BME280;25147;52.142;9.960;2023-09-19T13:00:46;100000.31;;;18.54;64.73
39443;BME280;25147;52.142;9.960;2023-09-19T13:03:18;100068.44;;;18.86;65.18
39443;BME280;25147;52.142;9.960;2023-09-19T13:06:12;99834.94;;;17.45;64.81
39443;BME280;25147;52.142;9.960;2023-09-19T13:09:13;100057.03;;;18.83;65.59
39443;BME280;25147;52.142;9.960;2023-09-19T13:11:59;100060.81;;;18.79;66.12
39443;BME280;25147;52.142;9.960;2023-09-19T13:14:40;99923.88;;;17.99;65.78
39443;BME280;25147;52.142;9.960;2023-09-19T13:17:42;99796.41;;;17.08;65.46
39443;BME280;25147;52.142;9.960;2023-09-19T13:20:25;100003.03;;;18.37;66.51
39443;BME280;25147;52.142;9.960;2023-09-19T13:23:26;100065.31;;;18.61;65.03
39443;BME280;25147;52.142;9.960;2023-09-19T13:26:12;100066.94;;;18.64;65.14
39443;BME280;25147;52.142;9.960;2023-09-19T13:28:45;99930.25;;;17.95;64.46
39443;BME280;25147;52.142;9.960;2023-09-19T13:31:18;99817.81;;;17.19;65.23
39443;BME280;25147;52.142;9.960;2023-09-19T13:34:23;99755.91;;;16.73;64.84
39443;BME280;25147;52.142;9.960;2023-09-19T13:40:17;100027.16;;;18.64;64.57
39443;BME280;25147;52.142;9.960;2023-09-19T13:43:12;100035.72;;;18.69;64.93
39443;BME280;25147;52.142;9.960;2023-09-19T13:45:55;99886.78;;;17.83;64.80
39443;BME280;25147;52.142;9.960;2023-09-19T13:48:23;99914.31;;;17.96;63.97
39443;BME280;25147;52.142;9.960;2023-09-19T13:51:06;100034.34;;;18.78;62.71
39443;BME280;25147;52.142;9.960;2023-09-19T13:53:47;99962.84;;;18.29;62.94
39443;BME280;25147;52.142;9.960;2023-09-19T13:56:28;99882.34;;;17.83;63.65
39443;BME280;25147;52.142;9.960;2023-09-19T13:59:09;99841.56;;;17.70;62.83
39443;BME280;25147;52.142;9.960;2023-09-19T14:01:36;99888.44;;;18.01;62.24
39443;BME280;25147;52.142;9.960;2023-09-19T14:04:08;100002.00;;;18.71;62.36
39443;BME280;25147;52.142;9.960;2023-09-19T14:06:45;100026.00;;;18.86;62.45
39443;BME280;25147;52.142;9.960;2023-09-19T14:09:15;100018.09;;;18.84;62.33
39443;BME280;25147;52.142;9.960;2023-09-19T14:11:45;99924.81;;;18.30;62.11
39443;BME280;25147;52.142;9.960;2023-09-19T14:14:13;99925.06;;;18.25;62.78
39443;BME280;25147;52.142;9.960;2023-09-19T14:16:40;99965.31;;;18.48;62.70
39443;BME280;25147;52.142;9.960;2023-09-19T14:22:10;100010.91;;;18.86;62.98
39443;BME280;25147;52.142;9.960;2023-09-19T14:24:41;99942.75;;;18.56;62.54
39443;BME280;25147;52.142;9.960;2023-09-19T14:27:15;99985.50;;;18.82;62.49
39443;BME280;25147;52.142;9.960;2023-09-19T14:30:13;99998.06;;;18.94;62.83
39443;BME280;25147;52.142;9.960;2023-09-19T14:32:48;100021.78;;;18.97;62.40
39443;BME280;25147;52.142;9.960;2023-09-19T14:38:14;99841.41;;;18.05;61.40
39443;BME280;25147;52.142;9.960;2023-09-19T14:40:45;99833.97;;;17.80;61.53
39443;BME280;25147;52.142;9.960;2023-09-19T14:43:21;99886.59;;;18.34;61.74
39443;BME280;25147;52.142;9.960;2023-09-19T14:45:48;99858.25;;;18.20;61.63
39443;BME280;25147;52.142;9.960;2023-09-19T14:48:15;99867.81;;;18.22;62.40
39443;BME280;25147;52.142;9.960;2023-09-19T14:50:42;99995.97;;;19.15;61.79
39443;BME280;25147;52.142;9.960;2023-09-19T14:53:18;99845.00;;;18.20;61.40
39443;BME280;25147;52.142;9.960;2023-09-19T14:55:50;99823.81;;;18.20;61.68
39443;BME280;25147;52.142;9.960;2023-09-19T14:58:17;99898.94;;;18.65;61.08
39443;BME280;25147;52.142;9.960;2023-09-19T15:00:46;99932.78;;;18.76;60.81
39443;BME280;25147;52.142;9.960;2023-09-19T15:03:13;99702.22;;;17.37;60.64
39443;BME280;25147;52.142;9.960;2023-09-19T15:05:40;99999.84;;;19.10;61.56
39443;BME280;25147;52.142;9.960;2023-09-19T15:08:07;99868.66;;;18.23;61.44
39443;BME280;25147;52.142;9.960;2023-09-19T15:10:36;99828.84;;;18.09;61.52
39443;BME280;25147;52.142;9.960;2023-09-19T15:13:07;99890.25;;;18.47;61.38
39443;BME280;25147;52.142;9.960;2023-09-19T15:15:34;99941.47;;;18.79;60.92
39443;BME280;25147;52.142;9.960;2023-09-19T15:18:01;99980.91;;;19.16;61.18